Time;durP1;ratioP1;P1;durP2;ratioP2;P2;SDS_P1;SDS_P2;PMS_P1;PMS_P2;Temp;Humidity;BMP_temperature;BMP_pressure;BME280_temperature;BME280_humidity;BME280_pressure;Samples;Min_cycle;Max_cycle;Signal;HPM_P1;HPM_P2
2023/03/19 00:00:40;;;;;;;2.42;1.90;;;;;;;12.59;100.00;100950.97;5094174;28;20051;-66
2023/03/19 00:03:07;;;;;;;3.90;2.10;;;;;;;12.52;100.00;100953.97;5093112;28;20060;-66
2023/03/19 00:05:35;;;;;;;4.47;2.20;;;;;;;12.50;100.00;100958.09;5109673;28;20052;-65
2023/03/19 00:08:03;;;;;;;5.30;2.58;;;;;;;12.51;100.00;100955.09;5097390;28;20110;-65
2023/03/19 00:10:30;;;;;;;3.53;2.10;;;;;;;12.56;100.00;100952.34;5094344;28;20131;-66
2023/03/19 00:12:58;;;;;;;4.60;2.05;;;;;;;12.63;100.00;100960.25;5109995;28;20039;-65
2023/03/19 00:15:26;;;;;;;2.45;1.85;;;;;;;12.60;100.00;100958.06;5113563;28;20040;-64
2023/03/19 00:17:55;;;;;;;2.60;1.85;;;;;;;12.60;100.00;100958.06;5113284;28;20039;-65
2023/03/19 00:20:23;;;;;;;3.65;1.95;;;;;;;12.53;100.00;100957.53;5114444;28;20055;-65
2023/03/19 00:22:50;;;;;;;2.03;1.52;;;;;;;12.57;100.00;100959.44;5096418;28;20048;-65
2023/03/19 00:25:18;;;;;;;1.90;1.52;;;;;;;12.60;100.00;100958.06;5113640;28;20047;-65
2023/03/19 00:27:46;;;;;;;3.95;1.95;;;;;;;12.57;100.00;100955.88;5114393;27;20119;-64
2023/03/19 00:30:14;;;;;;;3.05;1.67;;;;;;;12.46;100.00;100962.47;5114250;28;20048;-65
2023/03/19 00:32:41;;;;;;;2.63;1.50;;;;;;;12.39;100.00;100968.25;5113375;28;20051;-66
2023/03/19 00:35:09;;;;;;;5.00;1.90;;;;;;;12.36;100.00;100966.88;5113227;28;20044;-65
2023/03/19 00:37:39;;;;;;;3.33;1.60;;;;;;;12.44;100.00;100970.16;5096305;28;20101;-65
2023/03/19 00:40:09;;;;;;;3.33;1.83;;;;;;;12.45;100.00;100972.59;5096435;28;20163;-66
2023/03/19 00:42:36;;;;;;;1.90;1.48;;;;;;;12.55;100.00;100972.59;5112160;28;20048;-64
2023/03/19 00:45:04;;;;;;;3.60;2.13;;;;;;;12.52;100.00;100964.09;5075793;28;20109;-64
2023/03/19 00:47:33;;;;;;;4.00;1.90;;;;;;;12.45;100.00;100975.31;5096282;27;20086;-65
2023/03/19 00:50:01;;;;;;;4.07;1.67;;;;;;;12.50;100.00;100967.09;5106838;28;20044;-65
2023/03/19 00:52:28;;;;;;;3.53;1.88;;;;;;;12.46;100.00;100978.84;5074177;28;20072;-65
2023/03/19 00:54:56;;;;;;;3.30;1.80;;;;;;;12.45;100.00;100969.03;5094171;28;20044;-65
2023/03/19 00:57:24;;;;;;;3.78;1.80;;;;;;;12.43;100.00;100968.50;5102150;28;20042;-65
2023/03/19 00:59:51;;;;;;;2.55;1.73;;;;;;;12.42;100.00;100966.88;5117470;28;20100;-65
2023/03/19 01:02:19;;;;;;;3.53;2.40;;;;;;;12.39;100.00;100978.31;5119330;28;20062;-64
2023/03/19 01:04:51;;;;;;;3.88;1.80;;;;;;;12.40;100.00;100969.06;5119888;28;20055;-64
2023/03/19 01:07:20;;;;;;;3.90;2.00;;;;;;;12.39;100.00;100972.88;5121543;28;20553;-65
2023/03/19 01:09:47;;;;;;;5.03;2.22;;;;;;;12.43;100.00;100971.22;5125380;28;20048;-65
2023/03/19 01:12:15;;;;;;;3.90;2.17;;;;;;;12.39;100.00;100973.72;5129774;27;20074;-62
2023/03/19 01:14:43;;;;;;;3.58;2.05;;;;;;;12.40;100.00;100969.06;5128798;28;20048;-65
2023/03/19 01:17:10;;;;;;;4.03;2.17;;;;;;;12.36;100.00;100975.06;5118758;28;20086;-65
2023/03/19 01:19:38;;;;;;;4.00;1.95;;;;;;;12.40;100.00;100971.78;5099820;28;20077;-65
2023/03/19 01:22:06;;;;;;;3.42;2.30;;;;;;;12.29;100.00;100980.00;5118487;27;20115;-65
2023/03/19 01:24:35;;;;;;;5.68;2.47;;;;;;;12.20;100.00;100978.94;5100368;28;20036;-64
2023/03/19 01:27:03;;;;;;;3.55;2.03;;;;;;;12.17;100.00;100975.91;5095970;28;20502;-66
2023/03/19 01:29:32;;;;;;;3.92;2.47;;;;;;;12.14;100.00;100974.53;5096361;28;20047;-64
2023/03/19 01:32:09;;;;;;;2.92;1.85;;;;;;;12.15;100.00;100968.81;5103007;27;20046;-65
2023/03/19 01:35:03;;;;;;;2.47;1.92;;;;;;;12.19;100.00;100968.25;5087801;28;20056;-65
2023/03/19 01:37:32;;;;;;;3.83;2.20;;;;;;;12.21;100.00;100966.06;5079141;28;20082;-65
2023/03/19 01:40:00;;;;;;;2.58;1.70;;;;;;;12.19;100.00;100960.88;5096228;28;20066;-65
2023/03/19 01:42:27;;;;;;;4.13;2.10;;;;;;;12.21;100.00;100957.88;5102097;27;20061;-64
2023/03/19 01:45:32;;;;;;;2.97;2.17;;;;;;;12.25;100.00;100973.44;5097709;28;20048;-65
2023/03/19 01:48:45;;;;;;;3.60;2.10;;;;;;;12.30;100.00;100965.25;5097003;28;20109;-65
2023/03/19 01:51:18;;;;;;;2.63;1.67;;;;;;;12.40;100.00;100953.47;5079384;28;20086;-65
2023/03/19 01:54:09;;;;;;;3.30;1.95;;;;;;;12.55;100.00;100956.19;5090105;28;20036;-65
2023/03/19 01:57:12;;;;;;;3.55;2.13;;;;;;;12.46;100.00;100948.81;5062569;28;20080;-65
2023/03/19 01:59:53;;;;;;;4.20;2.15;;;;;;;12.44;100.00;100967.41;5099538;28;20129;-65
2023/03/19 02:02:53;;;;;;;3.08;1.75;;;;;;;12.48;100.00;100958.38;5114939;27;20128;-65
2023/03/19 02:05:52;;;;;;;2.67;2.13;;;;;;;12.53;100.00;100957.53;5071113;28;20035;-66
2023/03/19 02:08:41;;;;;;;3.83;1.73;;;;;;;12.53;100.00;100957.53;5079451;28;20062;-65
2023/03/19 02:11:09;;;;;;;2.53;1.75;;;;;;;12.49;100.00;100967.41;5095608;28;20036;-65
2023/03/19 02:13:36;;;;;;;3.33;1.90;;;;;;;12.44;100.00;100968.22;5064981;27;20162;-65
2023/03/19 02:16:04;;;;;;;2.38;1.88;;;;;;;12.45;100.00;100966.31;5116858;28;20075;-65
2023/03/19 02:18:36;;;;;;;2.28;1.80;;;;;;;12.47;100.00;100962.19;5098804;28;20040;-65
2023/03/19 02:21:18;;;;;;;2.97;1.92;;;;;;;12.51;100.00;100957.00;5114942;28;20407;-64
2023/03/19 02:24:06;;;;;;;3.92;2.28;;;;;;;12.52;100.00;100955.91;5098491;28;20108;-66
2023/03/19 02:26:53;;;;;;;3.67;1.95;;;;;;;12.43;100.00;100963.03;5095017;27;20094;-66
2023/03/19 02:29:23;;;;;;;4.90;2.20;;;;;;;12.35;100.00;100961.69;5078534;28;20044;-66
2023/03/19 02:31:52;;;;;;;5.05;2.28;;;;;;;12.31;100.00;100961.44;5094926;28;20083;-66
2023/03/19 02:34:20;;;;;;;2.80;2.00;;;;;;;12.25;100.00;100962.53;5094721;28;20079;-65
2023/03/19 02:36:55;;;;;;;6.75;2.72;;;;;;;12.21;100.00;100961.44;5096913;27;20044;-65
2023/03/19 02:39:41;;;;;;;4.25;2.53;;;;;;;12.26;100.00;100969.59;5078063;28;20048;-65
2023/03/19 02:42:10;;;;;;;3.58;1.92;;;;;;;12.21;100.00;100971.53;5061771;28;20080;-66
2023/03/19 02:44:38;;;;;;;4.57;2.63;;;;;;;12.22;100.00;100965.81;5078148;28;20048;-65
2023/03/19 02:47:05;;;;;;;4.57;2.53;;;;;;;12.19;100.00;100965.53;5109353;27;20074;-64
2023/03/19 02:49:34;;;;;;;5.55;2.90;;;;;;;12.19;100.00;100963.59;5115329;28;20051;-65
2023/03/19 02:52:02;;;;;;;5.00;2.88;;;;;;;12.13;100.00;100975.66;5114529;28;20075;-65
2023/03/19 02:54:30;;;;;;;5.45;2.90;;;;;;;12.08;100.00;100975.66;5116463;28;20097;-65
2023/03/19 02:56:58;;;;;;;5.22;2.70;;;;;;;12.07;100.00;100988.47;5114256;27;20044;-65
2023/03/19 02:59:25;;;;;;;4.85;2.90;;;;;;;12.05;100.00;100978.91;5098333;28;20126;-66
2023/03/19 03:01:53;;;;;;;3.58;2.22;;;;;;;12.07;100.00;100983.00;5114368;28;20123;-66
2023/03/19 03:04:21;;;;;;;4.50;2.63;;;;;;;12.07;100.00;100983.00;5115092;28;20101;-65
2023/03/19 03:06:49;;;;;;;5.13;2.80;;;;;;;12.03;100.00;100978.41;5100311;27;20396;-64
2023/03/19 03:09:17;;;;;;;5.85;2.58;;;;;;;12.01;100.00;100984.13;5094206;28;20071;-66
2023/03/19 03:11:44;;;;;;;6.75;3.25;;;;;;;11.99;100.00;100980.84;5060975;28;20074;-65
2023/03/19 03:14:12;;;;;;;5.03;2.95;;;;;;;12.15;100.00;100978.94;5094374;28;20062;-66
2023/03/19 03:16:40;;;;;;;4.50;3.15;;;;;;;12.09;100.00;100985.47;5083399;28;20511;-66
2023/03/19 03:19:08;;;;;;;4.63;2.75;;;;;;;12.06;100.00;100980.56;5111333;28;20090;-65
2023/03/19 03:21:36;;;;;;;4.38;3.00;;;;;;;12.00;100.00;100978.94;5094004;28;20052;-64
2023/03/19 03:24:04;;;;;;;3.00;1.95;;;;;;;12.06;100.00;100980.56;5113847;28;20114;-64
2023/03/19 03:26:33;;;;;;;4.28;2.10;;;;;;;12.06;100.00;100977.84;5113816;27;20079;-65
2023/03/19 03:29:01;;;;;;;4.72;3.10;;;;;;;12.02;100.00;100977.56;5115138;28;20063;-65
2023/03/19 03:31:29;;;;;;;6.20;3.47;;;;;;;12.00;100.00;100982.50;5115210;28;20127;-64
2023/03/19 03:33:56;;;;;;;6.35;3.20;;;;;;;12.06;100.00;100988.75;5113959;28;20051;-64
2023/03/19 03:36:24;;;;;;;7.05;3.70;;;;;;;12.05;100.00;100989.84;5114067;28;20062;-64
2023/03/19 03:38:52;;;;;;;4.95;2.95;;;;;;;12.04;100.00;100982.75;5114078;28;20093;-66
2023/03/19 03:41:21;;;;;;;6.80;3.20;;;;;;;12.05;100.00;100987.97;5093441;28;20137;-65
2023/03/19 03:43:49;;;;;;;4.97;2.72;;;;;;;12.04;100.00;100983.56;5080274;28;20039;-66
2023/03/19 03:46:17;;;;;;;6.22;3.20;;;;;;;12.01;100.00;100989.59;5115397;28;20543;-64
2023/03/19 03:48:48;;;;;;;6.28;3.33;;;;;;;11.97;100.00;100982.22;5113575;28;20514;-65
2023/03/19 03:51:16;;;;;;;4.68;3.20;;;;;;;11.92;100.00;100986.56;5114029;28;20051;-64
2023/03/19 03:53:44;;;;;;;5.65;3.50;;;;;;;11.91;100.00;100990.41;5079428;28;20127;-64
2023/03/19 03:56:12;;;;;;;6.10;3.13;;;;;;;11.89;100.00;100987.13;5076426;28;20535;-64
2023/03/19 03:58:40;;;;;;;5.30;3.15;;;;;;;11.88;100.00;100990.97;5065895;28;20484;-66
2023/03/19 04:01:12;;;;;;;5.40;3.25;;;;;;;11.89;100.00;100991.78;5093858;27;20044;-65
2023/03/19 04:03:40;;;;;;;6.47;3.55;;;;;;;11.87;100.00;101002.94;5060238;28;20063;-66
2023/03/19 04:06:13;;;;;;;4.72;3.25;;;;;;;11.91;100.00;100995.06;5094085;28;20070;-66
2023/03/19 04:08:41;;;;;;;10.10;4.20;;;;;;;11.89;100.00;101002.69;5093681;28;20054;-64
2023/03/19 04:11:09;;;;;;;6.20;3.50;;;;;;;11.85;100.00;100999.63;5095106;27;20051;-65
2023/03/19 04:13:37;;;;;;;6.43;3.95;;;;;;;11.81;100.00;101004.03;5092878;27;20511;-64
2023/03/19 04:16:06;;;;;;;6.80;3.67;;;;;;;11.78;100.00;101007.28;5093374;28;20123;-64
2023/03/19 04:18:35;;;;;;;5.95;3.40;;;;;;;11.78;100.00;101001.00;5092765;28;20138;-65
2023/03/19 04:21:04;;;;;;;9.52;4.05;;;;;;;11.76;100.00;101008.63;5094438;28;20048;-66
2023/03/19 04:23:32;;;;;;;4.82;2.65;;;;;;;11.77;100.00;100997.47;5090436;28;20097;-66
2023/03/19 04:26:05;;;;;;;3.70;2.65;;;;;;;11.82;100.00;101002.94;5094591;28;20074;-65
2023/03/19 04:28:33;;;;;;;5.82;2.95;;;;;;;11.82;100.00;101002.94;5093937;28;20134;-65
2023/03/19 04:31:06;;;;;;;6.13;3.28;;;;;;;11.77;100.00;101011.13;5059407;28;20048;-66
2023/03/19 04:33:37;;;;;;;6.85;3.75;;;;;;;11.72;100.00;101011.09;5087574;28;20070;-65
2023/03/19 04:36:06;;;;;;;6.05;3.60;;;;;;;11.71;100.00;101006.72;5093872;28;20555;-65
2023/03/19 04:38:35;;;;;;;4.60;3.15;;;;;;;11.73;100.00;101010.81;5092448;28;20624;-66
2023/03/19 04:41:03;;;;;;;5.40;3.05;;;;;;;11.72;100.00;101014.66;5093078;28;20471;-64
2023/03/19 04:43:34;;;;;;;4.32;3.03;;;;;;;11.72;100.00;101019.31;5075478;28;20052;-65
2023/03/19 04:46:05;;;;;;;5.30;3.03;;;;;;;11.70;100.00;101007.81;5092779;28;20131;-65
2023/03/19 04:48:36;;;;;;;5.43;3.47;;;;;;;11.71;100.00;101018.50;5092966;28;20130;-65
2023/03/19 04:51:07;;;;;;;4.22;2.78;;;;;;;11.70;100.00;101010.56;5094542;28;20044;-65
2023/03/19 04:53:36;;;;;;;7.25;3.75;;;;;;;11.66;100.00;101009.44;5124473;28;20048;-65
2023/03/19 04:56:05;;;;;;;5.95;3.17;;;;;;;11.65;100.00;101010.56;5125462;28;20082;-65
2023/03/19 04:58:33;;;;;;;5.65;3.45;;;;;;;11.62;100.00;101006.47;5096494;28;20059;-66
2023/03/19 05:01:02;;;;;;;6.57;3.38;;;;;;;11.60;100.00;101014.09;5102325;28;20058;-65
2023/03/19 05:03:53;;;;;;;5.63;3.55;;;;;;;11.55;100.00;101024.19;5126092;28;20447;-64
2023/03/19 05:06:21;;;;;;;6.88;3.83;;;;;;;11.51;100.00;101024.69;5122853;28;20059;-65
2023/03/19 05:08:49;;;;;;;9.80;4.40;;;;;;;11.43;100.00;101025.25;5078794;28;20548;-65
2023/03/19 05:11:19;;;;;;;5.68;3.70;;;;;;;11.40;100.00;101023.06;5095458;28;20048;-65
2023/03/19 05:14:07;;;;;;;4.97;3.03;;;;;;;11.39;100.00;101035.03;5079016;28;20109;-65
2023/03/19 05:16:53;;;;;;;5.78;3.40;;;;;;;11.38;100.00;101036.13;5101558;28;20059;-66
2023/03/19 05:19:21;;;;;;;4.57;3.05;;;;;;;11.42;100.00;101034.50;5092461;28;20386;-65
2023/03/19 05:21:50;;;;;;;6.00;3.40;;;;;;;11.42;100.00;101041.88;5093008;28;20040;-66
2023/03/19 05:24:23;;;;;;;8.25;3.50;;;;;;;11.41;100.00;101038.31;5093016;28;20063;-65
2023/03/19 05:26:52;;;;;;;5.57;3.53;;;;;;;11.39;100.00;101043.22;5091780;28;20052;-65
2023/03/19 05:29:37;;;;;;;6.40;3.38;;;;;;;11.42;100.00;101041.88;5061103;28;20040;-66
2023/03/19 05:32:45;;;;;;;6.93;4.55;;;;;;;11.36;100.00;101043.78;5071948;28;20047;-66
2023/03/19 05:35:24;;;;;;;6.25;3.45;;;;;;;11.31;100.00;101057.41;5111801;28;20053;-65
2023/03/19 05:37:52;;;;;;;5.13;3.28;;;;;;;11.29;100.00;101052.19;5061856;28;20048;-65
2023/03/19 05:40:21;;;;;;;7.00;4.05;;;;;;;11.25;100.00;101053.81;5091810;28;20341;-66
2023/03/19 05:42:50;;;;;;;7.32;4.28;;;;;;;11.21;100.00;101054.63;5075102;28;20052;-66
2023/03/19 05:45:21;;;;;;;8.55;4.50;;;;;;;11.18;100.00;101049.69;5091703;28;20044;-65
2023/03/19 05:47:53;;;;;;;10.45;4.65;;;;;;;11.15;100.00;101055.69;5093272;28;20077;-64
2023/03/19 05:50:21;;;;;;;7.65;4.75;;;;;;;11.14;100.00;101062.25;5108274;28;20075;-65
2023/03/19 05:53:24;;;;;;;7.68;4.50;;;;;;;11.07;100.00;101057.84;5095119;28;20400;-66
2023/03/19 05:56:10;;;;;;;9.30;5.13;;;;;;;10.98;100.00;101059.41;5078884;28;20492;-66
2023/03/19 05:58:51;;;;;;;8.77;5.38;;;;;;;10.83;100.00;101064.81;5096485;28;20044;-64
2023/03/19 06:01:23;;;;;;;8.48;5.40;;;;;;;10.80;100.00;101062.56;5099296;28;20559;-65
2023/03/19 06:03:51;;;;;;;8.60;5.40;;;;;;;10.77;100.00;101068.56;5098834;28;20491;-65
2023/03/19 06:06:18;;;;;;;9.40;5.93;;;;;;;10.76;100.00;101072.38;5078085;28;20411;-64
2023/03/19 06:08:51;;;;;;;10.27;4.43;;;;;;;10.85;100.00;101059.91;5096544;28;20068;-66
2023/03/19 06:11:33;;;;;;;7.68;4.13;;;;;;;10.88;100.00;101065.63;5097496;28;20071;-65
2023/03/19 06:14:24;;;;;;;7.18;4.70;;;;;;;10.90;100.00;101070.84;5095077;28;20052;-65
2023/03/19 06:17:15;;;;;;;7.50;4.60;;;;;;;10.95;100.00;101076.31;5087690;27;20051;-65
2023/03/19 06:19:46;;;;;;;6.88;4.20;;;;;;;11.00;100.00;101078.25;5116362;28;20150;-65
2023/03/19 06:22:14;;;;;;;9.80;4.85;;;;;;;11.04;100.00;101087.53;5093844;28;20347;-65
2023/03/19 06:24:41;;;;;;;6.97;4.50;;;;;;;11.05;100.00;101081.81;5096097;28;20135;-64
2023/03/19 06:27:09;;;;;;;7.32;3.90;;;;;;;11.04;100.00;101085.63;5082173;27;20059;-66
2023/03/19 06:29:37;;;;;;;8.20;4.65;;;;;;;10.98;100.00;101092.13;5082414;28;20044;-65
2023/03/19 06:32:20;;;;;;;7.63;4.40;;;;;;;10.98;100.00;101097.59;5094385;28;20047;-66
2023/03/19 06:34:50;;;;;;;9.13;4.72;;;;;;;10.99;100.00;101099.25;5095138;28;20050;-65
2023/03/19 06:37:19;;;;;;;8.43;4.82;;;;;;;11.02;100.00;101101.44;5079655;27;20113;-66
2023/03/19 06:39:48;;;;;;;8.07;4.13;;;;;;;11.04;100.00;101101.16;5116382;28;20050;-65
2023/03/19 06:42:16;;;;;;;7.85;4.57;;;;;;;11.05;100.00;101109.09;5118087;28;20053;-65
2023/03/19 06:44:44;;;;;;;7.22;4.05;;;;;;;11.04;100.00;101102.00;5098922;28;20048;-65
2023/03/19 06:47:11;;;;;;;7.50;3.90;;;;;;;11.08;100.00;101108.53;5100697;28;20048;-66
2023/03/19 06:49:41;;;;;;;6.80;3.55;;;;;;;11.16;100.00;101104.53;5096603;28;20062;-65
2023/03/19 06:52:09;;;;;;;7.38;3.40;;;;;;;11.23;100.00;101117.91;5096850;28;20484;-64
2023/03/19 06:54:36;;;;;;;4.75;3.00;;;;;;;11.26;100.00;101111.94;5078282;28;20043;-64
2023/03/19 06:57:05;;;;;;;6.30;3.42;;;;;;;11.22;100.00;101108.09;5095521;28;20044;-64
2023/03/19 06:59:33;;;;;;;6.45;4.32;;;;;;;11.19;100.00;101125.00;5103380;27;20047;-65
2023/03/19 07:02:01;;;;;;;5.93;3.10;;;;;;;11.27;100.00;101121.75;5113629;28;20127;-64
2023/03/19 07:04:29;;;;;;;4.97;1.70;;;;;;;11.36;100.00;101124.78;5115643;28;20048;-64
2023/03/19 07:06:57;;;;;;;6.35;3.30;;;;;;;11.35;100.00;101132.13;5114835;28;20047;-65
2023/03/19 07:09:26;;;;;;;5.43;3.60;;;;;;;11.29;100.00;101130.50;5113964;27;20066;-64
2023/03/19 07:11:53;;;;;;;6.60;4.13;;;;;;;11.26;100.00;101134.56;5114284;28;20051;-64
2023/03/19 07:14:22;;;;;;;6.00;3.85;;;;;;;11.28;100.00;101128.81;5113891;28;20138;-65
2023/03/19 07:16:50;;;;;;;6.07;4.18;;;;;;;11.23;100.00;101137.84;5113999;28;20474;-64
2023/03/19 07:19:18;;;;;;;4.57;3.33;;;;;;;11.26;100.00;101141.94;5113843;27;20437;-66
2023/03/19 07:21:45;;;;;;;6.00;3.88;;;;;;;11.26;100.00;101141.94;5114198;27;20044;-65
2023/03/19 07:24:13;;;;;;;7.13;4.30;;;;;;;11.25;100.00;101149.28;5077695;28;20044;-64
2023/03/19 07:26:42;;;;;;;7.47;4.60;;;;;;;11.24;100.00;101144.09;5093817;28;20044;-64
2023/03/19 07:29:10;;;;;;;6.78;3.95;;;;;;;11.24;100.00;101155.81;5094780;28;20108;-65
2023/03/19 07:31:38;;;;;;;12.85;4.75;;;;;;;11.27;100.00;101154.47;5091115;28;20047;-65
2023/03/19 07:34:06;;;;;;;11.70;5.07;;;;;;;11.27;100.00;101152.56;5114582;28;20111;-65
2023/03/19 07:36:34;;;;;;;9.55;6.07;;;;;;;11.14;100.00;101152.22;5114497;28;20043;-65
2023/03/19 07:39:02;;;;;;;10.02;6.72;;;;;;;11.05;100.00;101157.34;5115135;28;20376;-64
2023/03/19 07:41:30;;;;;;;8.88;6.50;;;;;;;11.01;100.00;101157.03;5114159;27;20075;-65
2023/03/19 07:43:58;;;;;;;11.02;6.72;;;;;;;11.01;100.00;101162.50;5114867;28;20126;-64
2023/03/19 07:46:27;;;;;;;10.32;6.30;;;;;;;11.00;100.00;101158.13;5113715;28;20039;-66
2023/03/19 07:48:54;;;;;;;11.73;7.18;;;;;;;11.01;100.00;101162.50;5114912;28;20071;-65
2023/03/19 07:51:22;;;;;;;10.68;7.65;;;;;;;11.01;100.00;101167.13;5093620;28;20063;-66
2023/03/19 07:53:50;;;;;;;12.52;7.57;;;;;;;10.99;100.00;101159.22;5094422;28;20048;-66
2023/03/19 07:56:18;;;;;;;12.15;7.10;;;;;;;11.03;100.00;101163.06;5092994;28;20123;-66
2023/03/19 07:58:45;;;;;;;11.25;7.70;;;;;;;11.05;100.00;101158.16;5094991;28;20056;-65
2023/03/19 08:01:13;;;;;;;11.68;7.47;;;;;;;11.09;100.00;101159.28;5095699;28;20032;-65
2023/03/19 08:03:41;;;;;;;12.82;6.78;;;;;;;11.14;100.00;101161.22;4387934;28;10000072;-65
2023/03/19 08:06:08;;;;;;;11.13;6.25;;;;;;;11.25;100.00;101156.66;5089744;28;20515;-67
2023/03/19 08:08:36;;;;;;;12.95;5.85;;;;;;;11.33;100.00;101169.81;5106519;28;20050;-65
2023/03/19 08:11:05;;;;;;;11.23;6.00;;;;;;;11.35;100.00;101177.69;5076707;28;20043;-66
2023/03/19 08:13:33;;;;;;;14.52;6.00;;;;;;;11.39;100.00;101179.63;5091235;27;20097;-65
2023/03/19 08:16:01;;;;;;;29.00;7.38;;;;;;;11.50;100.00;101177.81;5110111;28;20128;-65
2023/03/19 08:18:28;;;;;;;13.43;5.63;;;;;;;11.51;100.00;101177.50;5108468;28;20051;-66
2023/03/19 08:20:56;;;;;;;15.88;6.55;;;;;;;11.49;100.00;101178.88;5092355;28;20036;-66
2023/03/19 08:23:24;;;;;;;12.35;6.10;;;;;;;11.42;100.00;101183.75;5093961;27;20040;-66
2023/03/19 08:25:52;;;;;;;14.25;6.38;;;;;;;11.29;100.00;101183.13;5109682;28;20051;-66
2023/03/19 08:28:20;;;;;;;12.60;6.80;;;;;;;11.26;100.00;101188.31;5092261;28;20062;-65
2023/03/19 08:30:48;;;;;;;15.73;6.72;;;;;;;11.25;100.00;101190.19;5110556;28;20102;-65
2023/03/19 08:33:16;;;;;;;14.75;6.68;;;;;;;11.26;100.00;101196.50;5109885;27;20416;-65
2023/03/19 08:35:44;;;;;;;17.73;6.45;;;;;;;11.29;100.00;101187.78;5110116;28;20054;-65
2023/03/19 08:38:15;;;;;;;15.68;6.63;;;;;;;11.38;100.00;101199.84;5092402;28;20048;-65
2023/03/19 08:40:42;;;;;;;13.63;6.38;;;;;;;11.39;100.00;101201.47;5110549;28;20093;-65
2023/03/19 08:43:10;;;;;;;13.75;6.47;;;;;;;11.38;100.00;101197.09;5109618;27;20094;-65
2023/03/19 08:45:38;;;;;;;14.68;6.53;;;;;;;11.36;100.00;101202.00;5127644;28;20044;-64
2023/03/19 08:48:05;;;;;;;12.57;6.47;;;;;;;11.28;100.00;101207.94;5118087;28;20128;-61
2023/03/19 08:50:33;;;;;;;14.88;7.20;;;;;;;11.27;100.00;101214.50;5116452;28;20040;-64
2023/03/19 08:53:01;;;;;;;16.80;7.60;;;;;;;11.27;100.00;101215.31;5120986;27;20051;-58
2023/03/19 08:55:28;;;;;;;15.10;7.70;;;;;;;11.28;100.00;101210.66;5136351;27;20544;-63
2023/03/19 08:57:56;;;;;;;16.92;7.57;;;;;;;11.20;100.00;101222.06;5119733;28;20051;-66
2023/03/19 09:00:24;;;;;;;15.20;7.10;;;;;;;11.18;100.00;101216.06;5111463;28;20039;-65
2023/03/19 09:02:52;;;;;;;16.75;7.63;;;;;;;11.17;100.00;101214.44;5110973;28;20050;-64
2023/03/19 09:05:21;;;;;;;16.58;8.18;;;;;;;11.22;100.00;101222.66;5107049;28;20047;-66
2023/03/19 09:07:51;;;;;;;16.33;8.45;;;;;;;11.21;100.00;101224.56;5093591;28;20043;-64
2023/03/19 09:10:19;;;;;;;16.02;7.80;;;;;;;11.22;100.00;101225.38;5092666;28;20399;-64
2023/03/19 09:12:47;;;;;;;15.68;7.50;;;;;;;11.27;100.00;101226.22;5093576;28;20567;-65
2023/03/19 09:15:15;;;;;;;17.70;7.18;;;;;;;11.36;100.00;101223.00;5092205;28;20086;-65
2023/03/19 09:17:43;;;;;;;14.57;6.28;;;;;;;11.41;100.00;101229.31;5059140;28;20437;-66
2023/03/19 09:20:11;;;;;;;17.20;7.13;;;;;;;11.46;100.00;101233.97;5093617;28;20123;-64
2023/03/19 09:22:39;;;;;;;13.45;6.50;;;;;;;11.44;100.00;101236.97;5093439;28;20135;-64
2023/03/19 09:25:07;;;;;;;16.02;7.20;;;;;;;11.46;100.00;101228.53;5093452;28;20048;-65
2023/03/19 09:27:35;;;;;;;16.25;6.50;;;;;;;11.47;100.00;101241.06;5093495;28;20054;-66
2023/03/19 09:30:03;;;;;;;14.23;6.05;;;;;;;11.51;100.00;101251.19;5097404;28;20046;-65
2023/03/19 09:32:31;;;;;;;13.32;5.95;;;;;;;11.56;100.00;101247.69;5096709;28;20491;-65
2023/03/19 09:34:59;;;;;;;18.50;6.45;;;;;;;11.72;100.00;101254.88;5098473;28;20540;-65
2023/03/19 09:37:26;;;;;;;13.85;6.47;;;;;;;11.67;100.00;101251.31;5097192;28;20070;-64
2023/03/19 09:39:54;;;;;;;17.52;7.22;;;;;;;11.66;100.00;101250.47;5097445;28;20123;-65
2023/03/19 09:42:44;;;;;;;16.13;6.40;;;;;;;11.66;100.00;101261.38;5096653;28;20048;-65
2023/03/19 09:45:15;;;;;;;16.15;6.35;;;;;;;11.67;100.00;101262.22;5085757;28;20056;-65
2023/03/19 09:47:44;;;;;;;17.05;6.93;;;;;;;11.65;100.00;101276.13;5095931;28;20055;-65
2023/03/19 09:50:15;;;;;;;14.82;5.72;;;;;;;11.67;100.00;101275.88;5097505;28;20159;-65
2023/03/19 09:52:56;;;;;;;13.57;5.65;;;;;;;11.69;100.00;101281.88;5097732;28;20050;-65
2023/03/19 09:55:24;;;;;;;18.50;6.10;;;;;;;11.70;100.00;101283.53;5096207;28;20428;-65
2023/03/19 09:57:54;;;;;;;19.33;6.78;;;;;;;11.70;100.00;101283.53;5097220;28;20438;-65
2023/03/19 10:00:35;;;;;;;11.32;4.65;;;;;;;11.81;100.00;101282.50;5078868;28;20101;-64
2023/03/19 10:03:25;;;;;;;14.27;5.72;;;;;;;11.88;100.00;101277.66;5078366;28;20070;-64
2023/03/19 10:06:22;;;;;;;11.60;5.47;;;;;;;11.92;100.00;101269.75;5096149;28;20094;-65
2023/03/19 10:09:17;;;;;;;11.77;6.15;;;;;;;11.88;100.00;101274.06;5079170;28;20059;-65
2023/03/19 10:11:58;;;;;;;14.02;5.32;;;;;;;11.87;100.00;101273.25;5079923;28;20036;-64
2023/03/19 10:14:50;;;;;;;12.13;5.28;;;;;;;11.93;100.00;101277.69;5096031;28;20488;-65
2023/03/19 10:17:26;;;;;;;13.45;5.40;;;;;;;11.97;100.00;101274.41;5096784;28;20040;-65
2023/03/19 10:20:02;;;;;;;17.55;6.97;;;;;;;11.94;100.00;101268.38;5095410;28;20128;-66
2023/03/19 10:22:46;;;;;;;10.77;4.72;;;;;;;11.98;100.00;101273.31;5095638;28;20048;-64
2023/03/19 10:25:22;;;;;;;11.60;5.03;;;;;;;12.10;100.00;101272.00;5095437;28;20142;-65
2023/03/19 10:27:58;;;;;;;14.00;5.38;;;;;;;12.10;100.00;101268.47;5094882;28;20127;-65
2023/03/19 10:30:25;;;;;;;13.68;4.68;;;;;;;12.11;100.00;101268.19;5095066;28;20035;-65
2023/03/19 10:33:13;;;;;;;17.25;6.28;;;;;;;12.21;100.00;101274.78;5077513;28;20044;-65
2023/03/19 10:35:50;;;;;;;15.93;5.70;;;;;;;12.25;100.00;101279.44;5095029;28;20117;-66
2023/03/19 10:38:23;;;;;;;15.27;6.18;;;;;;;12.27;100.00;101282.72;5095039;28;20052;-65
2023/03/19 10:41:20;;;;;;;17.50;5.60;;;;;;;12.27;100.00;101273.72;5095232;28;20472;-64
2023/03/19 10:43:53;;;;;;;14.43;5.03;;;;;;;12.30;100.00;101276.72;5096082;28;20127;-66
2023/03/19 10:46:21;;;;;;;12.68;4.55;;;;;;;12.37;100.00;101281.94;5094919;28;20052;-65
2023/03/19 10:48:49;;;;;;;18.48;5.45;;;;;;;12.62;100.00;101286.63;5095682;28;20508;-65
2023/03/19 10:51:24;;;;;;;16.63;5.05;;;;;;;12.60;100.00;101286.06;5094486;28;20044;-65
2023/03/19 10:53:56;;;;;;;16.42;5.35;;;;;;;12.52;100.00;101289.34;5094788;28;20044;-64
2023/03/19 10:56:28;;;;;;;12.32;4.82;;;;;;;12.52;100.00;101284.69;5078272;28;20051;-65
2023/03/19 10:59:01;;;;;;;11.75;4.55;;;;;;;12.67;100.00;101288.56;5078100;28;20059;-66
2023/03/19 11:01:40;;;;;;;13.00;4.10;;;;;;;12.79;100.00;101295.44;5094411;28;20051;-66
2023/03/19 11:04:21;;;;;;;15.23;4.93;;;;;;;12.85;100.00;101303.66;5094200;28;20060;-65
2023/03/19 11:06:51;;;;;;;15.02;4.93;;;;;;;12.77;100.00;101308.56;5094739;28;20081;-66
2023/03/19 11:09:46;;;;;;;12.65;4.68;;;;;;;12.67;100.00;101304.97;5061290;28;20097;-65
2023/03/19 11:12:21;;;;;;;16.13;4.95;;;;;;;12.62;100.00;101303.03;5078115;28;20035;-65
2023/03/19 11:14:59;;;;;;;13.80;5.43;;;;;;;12.58;100.00;101307.44;5094502;28;20119;-66
2023/03/19 11:17:46;;;;;;;19.23;5.00;;;;;;;12.61;100.00;101308.78;5094445;28;20047;-65
2023/03/19 11:20:28;;;;;;;14.73;4.93;;;;;;;12.54;100.00;101309.03;5094182;28;20059;-65
2023/03/19 11:23:01;;;;;;;16.27;5.50;;;;;;;12.51;100.00;101312.31;5095354;28;20456;-65
2023/03/19 11:25:37;;;;;;;12.25;5.38;;;;;;;12.48;100.00;101312.84;5079106;28;20492;-65
2023/03/19 11:28:16;;;;;;;11.75;5.90;;;;;;;12.44;100.00;101309.03;5077669;28;20421;-66
2023/03/19 11:31:09;;;;;;;15.07;7.35;;;;;;;12.41;100.00;101310.38;5078036;28;20446;-65
2023/03/19 11:33:55;;;;;;;13.88;6.50;;;;;;;12.45;100.00;101314.19;5077758;28;20056;-65
2023/03/19 11:36:44;;;;;;;14.93;6.85;;;;;;;12.47;100.00;101317.50;5095024;28;20101;-65